Time;durP1;ratioP1;P1;durP2;ratioP2;P2;SDS_P1;SDS_P2;PMS_P1;PMS_P2;Temp;Humidity;BMP_temperature;BMP_pressure;BME280_temperature;BME280_humidity;BME280_pressure;Samples;Min_cycle;Max_cycle;Signal;HPM_P1;HPM_P2
2022/03/16 00:02:22;;;;;;;7.63;4.38;;;11.30;85.90;;;;;;5053506;28;20515;-63
2022/03/16 00:04:54;;;;;;;14.57;4.05;;;11.30;86.70;;;;;;5034558;28;20403;-63
2022/03/16 00:07:21;;;;;;;8.68;4.57;;;11.30;86.00;;;;;;5044029;28;20021;-63
2022/03/16 00:09:47;;;;;;;6.82;3.78;;;11.30;86.00;;;;;;5052872;28;20486;-63
2022/03/16 00:12:14;;;;;;;9.75;3.97;;;11.30;86.00;;;;;;5051587;28;20039;-64
2022/03/16 00:14:40;;;;;;;7.90;3.90;;;11.30;86.10;;;;;;5044324;28;20037;-63
2022/03/16 00:17:06;;;;;;;8.32;3.50;;;11.30;86.10;;;;;;5050686;28;20104;-63
2022/03/16 00:19:33;;;;;;;6.32;3.33;;;11.30;86.10;;;;;;5034366;28;20443;-64
2022/03/16 00:22:00;;;;;;;7.80;3.83;;;11.30;86.10;;;;;;5051280;28;20444;-63
2022/03/16 00:24:27;;;;;;;7.63;4.63;;;11.30;86.10;;;;;;5051711;28;20087;-63
2022/03/16 00:26:52;;;;;;;9.77;4.10;;;11.30;86.10;;;;;;5052542;28;20020;-63
2022/03/16 00:29:18;;;;;;;10.95;4.32;;;11.30;86.20;;;;;;5051374;28;20378;-63
2022/03/16 00:31:44;;;;;;;11.52;5.50;;;11.30;86.20;;;;;;5051746;28;20037;-62
2022/03/16 00:34:10;;;;;;;10.10;4.93;;;11.30;86.10;;;;;;5050454;28;20389;-63
2022/03/16 00:36:36;;;;;;;13.43;5.63;;;11.30;86.30;;;;;;5051883;28;20086;-62
2022/03/16 00:39:03;;;;;;;14.32;6.13;;;11.30;86.30;;;;;;5050525;28;20016;-64
2022/03/16 00:41:28;;;;;;;14.80;5.20;;;11.30;86.30;;;;;;5051602;28;20532;-63
2022/03/16 00:43:54;;;;;;;17.77;7.35;;;11.30;86.30;;;;;;5051304;28;20028;-63
2022/03/16 00:46:20;;;;;;;19.63;7.85;;;11.30;86.40;;;;;;5052135;28;20471;-63
2022/03/16 00:48:45;;;;;;;13.82;7.05;;;11.30;86.40;;;;;;5051439;28;20553;-64
2022/03/16 00:51:11;;;;;;;14.88;5.50;;;11.30;86.40;;;;;;5049475;28;20041;-64
2022/03/16 00:53:39;;;;;;;17.08;7.72;;;11.30;86.40;;;;;;5051589;28;20036;-62
2022/03/16 00:56:06;;;;;;;15.45;6.60;;;11.30;86.40;;;;;;5051900;28;20053;-63
2022/03/16 00:58:32;;;;;;;14.25;6.88;;;11.30;86.50;;;;;;5051643;28;20041;-62
2022/03/16 01:00:59;;;;;;;10.63;5.85;;;11.30;86.50;;;;;;5050798;28;20086;-63
2022/03/16 01:03:26;;;;;;;9.65;5.25;;;11.30;86.50;;;;;;5031747;28;20017;-63
2022/03/16 01:05:51;;;;;;;16.30;7.95;;;11.30;86.50;;;;;;5051514;28;20021;-63
2022/03/16 01:08:17;;;;;;;19.02;7.28;;;11.30;86.50;;;;;;5050782;28;20032;-63
2022/03/16 01:10:43;;;;;;;18.45;7.60;;;11.30;86.70;;;;;;5032588;28;20472;-63
2022/03/16 01:13:08;;;;;;;20.73;8.68;;;11.30;86.60;;;;;;5050626;28;20478;-63
2022/03/16 01:15:34;;;;;;;14.98;7.45;;;11.30;86.90;;;;;;5050746;28;20104;-63
2022/03/16 01:18:00;;;;;;;20.70;8.13;;;11.30;86.80;;;;;;5050798;28;20581;-63
2022/03/16 01:20:26;;;;;;;15.80;7.05;;;11.30;86.90;;;;;;5051474;28;20100;-63
2022/03/16 01:22:51;;;;;;;17.80;8.02;;;11.30;86.90;;;;;;5050322;28;20036;-63
2022/03/16 01:25:17;;;;;;;16.88;7.70;;;11.30;87.10;;;;;;5051114;28;20029;-63
2022/03/16 01:27:43;;;;;;;22.95;7.65;;;11.30;87.00;;;;;;5051451;28;20044;-63
2022/03/16 01:30:09;;;;;;;17.50;7.63;;;11.30;86.90;;;;;;5050112;28;20052;-62
2022/03/16 01:32:35;;;;;;;16.80;7.93;;;11.30;86.90;;;;;;5050097;28;20500;-62
2022/03/16 01:35:01;;;;;;;18.05;8.30;;;11.30;86.90;;;;;;5048755;28;20028;-62
2022/03/16 01:37:26;;;;;;;14.50;7.50;;;11.30;86.80;;;;;;5050257;28;20083;-62
2022/03/16 01:39:52;;;;;;;18.10;7.53;;;11.30;87.30;;;;;;5051330;28;20425;-63
2022/03/16 01:42:18;;;;;;;15.70;6.65;;;11.30;86.90;;;;;;5049728;28;20037;-63
2022/03/16 01:44:49;;;;;;;22.92;8.07;;;11.30;87.00;;;;;;5049978;28;20117;-63
2022/03/16 01:47:17;;;;;;;19.77;7.70;;;11.30;87.00;;;;;;5050687;28;20071;-63
2022/03/16 01:49:43;;;;;;;17.23;7.32;;;11.30;87.10;;;;;;5050941;28;20037;-63
2022/03/16 01:52:10;;;;;;;13.70;6.40;;;11.30;87.10;;;;;;5050171;28;20040;-63
2022/03/16 01:54:36;;;;;;;14.52;6.57;;;11.30;87.10;;;;;;5050119;28;20036;-63
2022/03/16 01:57:02;;;;;;;18.48;8.05;;;11.30;87.10;;;;;;5050719;28;20456;-62
2022/03/16 01:59:30;;;;;;;15.00;6.68;;;11.30;87.10;;;;;;5031807;28;20021;-63
2022/03/16 02:01:56;;;;;;;17.55;6.22;;;11.30;87.20;;;;;;5032462;28;20025;-63
2022/03/16 02:04:21;;;;;;;22.80;6.97;;;11.30;87.20;;;;;;5050258;28;20107;-62
2022/03/16 02:06:47;;;;;;;11.65;6.32;;;11.30;87.10;;;;;;5051823;28;20394;-62
2022/03/16 02:09:19;;;;;;;12.93;6.13;;;11.30;87.30;;;;;;5053158;28;20029;-65
2022/03/16 02:11:44;;;;;;;23.15;7.43;;;11.30;87.20;;;;;;5050553;28;20025;-62
2022/03/16 02:14:10;;;;;;;15.13;6.55;;;11.30;87.30;;;;;;5049077;28;20540;-63
2022/03/16 02:19:01;;;;;;;15.85;7.47;;;11.30;87.30;;;;;;5126352;22;20051;-61
2022/03/16 02:21:28;;;;;;;18.08;7.60;;;11.30;87.30;;;;;;5108854;28;20023;-60
2022/03/16 02:23:54;;;;;;;19.17;7.47;;;11.30;87.40;;;;;;5109778;28;20024;-61
2022/03/16 02:26:25;;;;;;;14.88;7.28;;;11.30;87.30;;;;;;5109747;28;20381;-61
2022/03/16 02:28:52;;;;;;;24.08;8.77;;;11.30;87.40;;;;;;5110466;28;20038;-61
2022/03/16 02:31:17;;;;;;;21.67;9.05;;;11.30;87.50;;;;;;5109371;28;20125;-61
2022/03/16 02:33:43;;;;;;;16.80;7.72;;;11.30;87.50;;;;;;5110207;28;20102;-60
2022/03/16 02:36:09;;;;;;;24.77;8.20;;;11.30;87.40;;;;;;5110393;28;20100;-60
2022/03/16 02:38:36;;;;;;;25.15;8.40;;;11.30;87.60;;;;;;5109413;28;20032;-61
2022/03/16 02:41:02;;;;;;;23.95;9.48;;;11.30;87.60;;;;;;5110554;28;20051;-61
2022/03/16 02:43:27;;;;;;;26.45;7.82;;;11.30;87.60;;;;;;5109532;28;20066;-61
2022/03/16 02:45:54;;;;;;;21.30;8.27;;;11.30;87.60;;;;;;5109419;28;20515;-61
2022/03/16 02:48:20;;;;;;;20.65;8.07;;;11.30;87.60;;;;;;5109453;28;20038;-61
2022/03/16 02:50:46;;;;;;;21.15;7.65;;;11.30;87.60;;;;;;5110046;28;20527;-60
2022/03/16 02:53:12;;;;;;;29.70;10.15;;;11.30;87.60;;;;;;5109047;28;20193;-61
2022/03/16 02:55:37;;;;;;;23.60;8.85;;;11.30;87.70;;;;;;5111130;28;20111;-61
2022/03/16 02:58:03;;;;;;;19.88;7.15;;;11.30;87.70;;;;;;5111345;28;20384;-60
2022/03/16 03:00:29;;;;;;;21.73;9.35;;;11.30;87.60;;;;;;5108795;28;20039;-60
2022/03/16 03:02:55;;;;;;;29.35;9.75;;;11.30;87.90;;;;;;5107886;28;20034;-61
2022/03/16 03:05:21;;;;;;;27.42;10.70;;;11.30;87.70;;;;;;5109562;28;20011;-61
2022/03/16 03:07:47;;;;;;;22.23;8.43;;;11.30;87.80;;;;;;5109627;28;20051;-60
2022/03/16 03:10:13;;;;;;;23.48;9.57;;;11.30;87.80;;;;;;5109475;28;20063;-60
2022/03/16 03:12:38;;;;;;;25.00;9.02;;;11.30;88.00;;;;;;5108669;28;20043;-60
2022/03/16 03:15:05;;;;;;;19.85;9.13;;;11.30;88.00;;;;;;5109024;28;20027;-61
2022/03/16 03:17:31;;;;;;;23.80;10.30;;;11.30;87.90;;;;;;5108934;28;20028;-60
2022/03/16 03:19:57;;;;;;;24.52;9.38;;;11.30;87.90;;;;;;5109569;28;20018;-60
2022/03/16 03:22:27;;;;;;;19.98;9.38;;;11.30;88.10;;;;;;5108849;28;20034;-61
2022/03/16 03:24:54;;;;;;;19.48;8.70;;;11.30;88.00;;;;;;5108671;28;20027;-61
2022/03/16 03:27:20;;;;;;;21.27;9.27;;;11.30;87.90;;;;;;5101926;28;20106;-61
2022/03/16 03:29:46;;;;;;;21.35;9.82;;;11.30;88.30;;;;;;5107928;28;20063;-61
2022/03/16 03:32:12;;;;;;;30.23;9.55;;;11.30;88.20;;;;;;5107062;28;20051;-61
2022/03/16 03:34:37;;;;;;;20.60;8.60;;;11.30;88.10;;;;;;5108976;28;20019;-62
2022/03/16 03:37:03;;;;;;;21.98;9.65;;;11.30;88.10;;;;;;5109490;28;20028;-61
2022/03/16 03:39:29;;;;;;;19.00;8.65;;;11.30;88.20;;;;;;5109448;28;20389;-60
2022/03/16 03:41:54;;;;;;;21.08;8.98;;;11.30;88.20;;;;;;5109402;28;20346;-61
2022/03/16 03:44:20;;;;;;;25.85;10.60;;;11.30;88.20;;;;;;5109553;28;20054;-61
2022/03/16 03:46:45;;;;;;;20.48;10.52;;;11.30;88.20;;;;;;5108328;28;20031;-61
2022/03/16 03:49:11;;;;;;;23.08;9.80;;;11.30;88.20;;;;;;5109456;28;20073;-61
2022/03/16 03:51:36;;;;;;;24.10;9.38;;;11.30;88.30;;;;;;5108870;28;20027;-61
2022/03/16 03:54:02;;;;;;;24.65;10.13;;;11.30;88.20;;;;;;5108616;28;20051;-61
2022/03/16 03:56:28;;;;;;;20.23;9.05;;;11.30;88.20;;;;;;5109222;28;20020;-62
2022/03/16 03:58:53;;;;;;;18.08;7.25;;;11.30;88.40;;;;;;5109084;28;20027;-62
2022/03/16 04:01:19;;;;;;;20.60;8.45;;;11.30;88.40;;;;;;5107774;28;20058;-61
2022/03/16 04:03:45;;;;;;;26.60;9.45;;;11.30;88.50;;;;;;5107926;28;20024;-60
2022/03/16 04:06:11;;;;;;;27.88;10.07;;;11.30;88.50;;;;;;5109750;28;20028;-61
2022/03/16 04:08:37;;;;;;;21.27;9.38;;;11.30;88.30;;;;;;5106678;28;20071;-62
2022/03/16 04:11:03;;;;;;;21.38;8.88;;;11.30;88.50;;;;;;5109015;28;20491;-61
2022/03/16 04:13:29;;;;;;;22.85;8.95;;;11.30;88.50;;;;;;5107862;28;20397;-61
2022/03/16 04:15:55;;;;;;;22.40;7.85;;;11.30;88.50;;;;;;5108450;28;20034;-61
2022/03/16 04:18:21;;;;;;;17.17;7.55;;;11.30;88.50;;;;;;5108957;28;20581;-61
2022/03/16 04:20:46;;;;;;;21.58;8.75;;;11.30;88.60;;;;;;5108069;28;20020;-60
2022/03/16 04:23:12;;;;;;;29.85;9.73;;;11.30;88.50;;;;;;5108734;28;20027;-60
2022/03/16 04:25:38;;;;;;;33.90;10.70;;;11.30;88.60;;;;;;5108530;28;20118;-60
2022/03/16 04:28:03;;;;;;;32.10;9.38;;;11.30;88.60;;;;;;5108843;28;20024;-61
2022/03/16 04:30:29;;;;;;;25.60;9.68;;;11.30;88.70;;;;;;5108519;28;20117;-61
2022/03/16 04:32:55;;;;;;;20.23;9.07;;;11.30;88.70;;;;;;5107634;28;20522;-61
2022/03/16 04:35:20;;;;;;;23.83;9.63;;;11.30;88.70;;;;;;5108755;28;20492;-61
2022/03/16 04:37:47;;;;;;;20.92;9.38;;;11.30;88.70;;;;;;5108774;28;20088;-61
2022/03/16 04:40:13;;;;;;;23.70;10.07;;;11.30;88.80;;;;;;5109091;28;20020;-61
2022/03/16 04:42:39;;;;;;;20.00;7.97;;;11.30;88.70;;;;;;5107388;28;20035;-61
2022/03/16 04:45:05;;;;;;;18.98;8.38;;;11.30;88.80;;;;;;5110627;28;20039;-61
2022/03/16 04:47:30;;;;;;;21.80;8.40;;;11.30;88.70;;;;;;5111364;28;20678;-61
2022/03/16 04:49:56;;;;;;;22.38;9.68;;;11.30;88.80;;;;;;5112641;28;20071;-61
2022/03/16 04:52:22;;;;;;;20.40;9.70;;;11.30;88.70;;;;;;5111761;28;20115;-61
2022/03/16 04:54:48;;;;;;;17.60;8.38;;;11.30;88.80;;;;;;5112722;28;20102;-60
2022/03/16 04:57:14;;;;;;;21.88;8.82;;;11.30;88.80;;;;;;5111683;28;20023;-61
2022/03/16 04:59:39;;;;;;;14.95;7.97;;;11.30;88.80;;;;;;5112311;28;20032;-60
2022/03/16 05:02:05;;;;;;;21.70;9.23;;;11.30;88.80;;;;;;5109724;28;20756;-60
2022/03/16 05:04:31;;;;;;;24.83;8.27;;;11.30;88.90;;;;;;5110399;28;20055;-60
2022/03/16 05:06:57;;;;;;;18.13;8.25;;;11.30;88.90;;;;;;5111366;28;20031;-61
2022/03/16 05:09:22;;;;;;;22.42;8.50;;;11.30;90.00;;;;;;5099463;28;20067;-60
2022/03/16 05:11:48;;;;;;;24.55;9.50;;;11.20;89.20;;;;;;5099512;28;20589;-60
2022/03/16 05:14:13;;;;;;;20.20;8.75;;;11.30;88.90;;;;;;5103195;28;20032;-60
2022/03/16 05:16:39;;;;;;;23.00;8.70;;;11.30;89.00;;;;;;5100858;28;20380;-60
2022/03/16 05:19:05;;;;;;;23.50;9.15;;;11.30;89.00;;;;;;5101979;28;20052;-60
2022/03/16 05:21:31;;;;;;;20.40;10.02;;;11.30;89.10;;;;;;5100157;28;20031;-60
2022/03/16 05:23:56;;;;;;;27.33;9.70;;;11.30;89.10;;;;;;5102042;28;20027;-60
2022/03/16 05:26:22;;;;;;;21.25;9.18;;;11.30;89.20;;;;;;5100450;28;20106;-60
2022/03/16 05:28:48;;;;;;;23.00;10.88;;;11.30;89.20;;;;;;5101543;28;20035;-60
2022/03/16 05:31:13;;;;;;;18.85;9.23;;;11.30;89.10;;;;;;5103699;28;20039;-61
2022/03/16 05:33:39;;;;;;;16.52;8.00;;;11.30;89.10;;;;;;5096129;28;20100;-60
2022/03/16 05:36:05;;;;;;;17.60;8.40;;;11.30;89.30;;;;;;5101320;27;20027;-60
2022/03/16 05:38:31;;;;;;;22.83;8.73;;;11.30;89.10;;;;;;5100597;28;20035;-60
2022/03/16 05:40:56;;;;;;;17.60;7.72;;;11.30;89.20;;;;;;5100553;28;20031;-61
2022/03/16 05:43:22;;;;;;;18.95;8.68;;;11.30;89.30;;;;;;5097588;28;20031;-60
2022/03/16 05:45:51;;;;;;;21.55;9.23;;;11.30;89.40;;;;;;5104903;28;20197;-60
2022/03/16 05:48:17;;;;;;;29.07;10.77;;;11.30;89.40;;;;;;5104658;28;20103;-60
2022/03/16 05:50:45;;;;;;;20.80;10.45;;;11.30;89.20;;;;;;5111383;28;20107;-60
2022/03/16 05:53:12;;;;;;;21.77;10.95;;;11.30;89.20;;;;;;5111092;28;20042;-60
2022/03/16 05:55:38;;;;;;;20.25;9.48;;;11.30;90.10;;;;;;5109383;28;20114;-61
2022/03/16 05:58:04;;;;;;;22.67;10.98;;;11.30;89.50;;;;;;5109495;28;20161;-60
2022/03/16 06:00:31;;;;;;;24.88;10.68;;;11.30;89.40;;;;;;5104889;28;20475;-60
2022/03/16 06:02:57;;;;;;;24.50;11.80;;;11.30;89.30;;;;;;5105712;28;20032;-60
2022/03/16 06:05:23;;;;;;;28.77;12.98;;;11.20;89.50;;;;;;5101555;28;20390;-60
2022/03/16 06:07:49;;;;;;;33.20;11.32;;;11.20;89.20;;;;;;5089770;28;20028;-60
2022/03/16 06:10:17;;;;;;;27.83;13.57;;;11.20;89.60;;;;;;5089757;28;20050;-60
2022/03/16 06:13:02;;;;;;;29.90;13.88;;;11.20;89.20;;;;;;5089838;27;20066;-60
2022/03/16 06:15:31;;;;;;;33.20;13.95;;;11.30;89.40;;;;;;5104242;28;20374;-60
2022/03/16 06:17:58;;;;;;;29.58;12.85;;;11.20;90.10;;;;;;5109707;28;20118;-60
2022/03/16 06:20:25;;;;;;;32.95;13.10;;;11.20;89.40;;;;;;5111106;28;20023;-60
2022/03/16 06:22:51;;;;;;;30.25;12.32;;;11.20;89.30;;;;;;5110012;28;20034;-60
2022/03/16 06:25:17;;;;;;;31.10;12.60;;;11.20;90.00;;;;;;5110869;28;20019;-60
2022/03/16 06:27:43;;;;;;;34.08;13.07;;;11.20;89.40;;;;;;5110908;28;20055;-60
2022/03/16 06:30:10;;;;;;;28.02;13.15;;;11.20;89.40;;;;;;5110506;28;20036;-60
2022/03/16 06:32:36;;;;;;;30.38;12.80;;;11.20;89.40;;;;;;5108990;28;20039;-60
2022/03/16 06:35:03;;;;;;;27.27;11.25;;;11.20;89.20;;;;;;5110569;28;20011;-61
2022/03/16 06:37:29;;;;;;;30.30;12.65;;;11.20;89.20;;;;;;5110087;28;20027;-61
2022/03/16 06:39:54;;;;;;;32.35;14.40;;;11.20;89.40;;;;;;5110627;28;20440;-60
2022/03/16 06:42:20;;;;;;;36.05;12.88;;;11.20;89.20;;;;;;5109847;28;20555;-61
2022/03/16 06:44:45;;;;;;;31.13;14.32;;;11.20;89.40;;;;;;5110139;28;20049;-60
2022/03/16 06:47:11;;;;;;;28.45;12.98;;;11.20;89.40;;;;;;5108310;28;20073;-60
2022/03/16 06:49:37;;;;;;;25.80;11.18;;;11.20;89.40;;;;;;5109741;28;20482;-60
2022/03/16 06:52:03;;;;;;;30.33;12.15;;;11.20;89.40;;;;;;5109043;28;20028;-60
2022/03/16 06:54:29;;;;;;;33.88;12.65;;;11.20;89.50;;;;;;5109954;28;20066;-60
2022/03/16 06:56:55;;;;;;;28.38;13.27;;;11.20;89.50;;;;;;5110082;28;20035;-60
2022/03/16 06:59:20;;;;;;;33.15;14.50;;;11.20;89.80;;;;;;5109809;28;20094;-60
2022/03/16 07:01:46;;;;;;;25.45;12.45;;;11.20;89.40;;;;;;5109679;28;20160;-60
2022/03/16 07:04:11;;;;;;;32.85;13.02;;;11.20;89.20;;;;;;5109244;28;20694;-60
2022/03/16 07:06:37;;;;;;;26.77;12.38;;;11.20;89.50;;;;;;5109567;28;20051;-60
2022/03/16 07:09:02;;;;;;;27.88;11.95;;;11.20;89.20;;;;;;5109641;28;20034;-60
2022/03/16 07:11:28;;;;;;;31.52;13.50;;;11.20;89.70;;;;;;5109228;28;20389;-60
2022/03/16 07:16:38;;;;;;;30.15;12.27;;;11.20;89.30;;;;;;5109957;28;20042;-60
2022/03/16 07:19:04;;;;;;;30.58;12.32;;;11.20;89.50;;;;;;5108173;28;20031;-60
2022/03/16 07:21:29;;;;;;;32.83;13.52;;;11.20;89.60;;;;;;5109401;28;20024;-60
2022/03/16 07:23:55;;;;;;;29.38;12.57;;;11.20;89.40;;;;;;5109718;28;20093;-60
2022/03/16 07:26:20;;;;;;;36.10;13.38;;;11.20;89.40;;;;;;5108461;28;20023;-61
2022/03/16 07:28:46;;;;;;;29.35;12.80;;;11.20;89.40;;;;;;5108370;28;20046;-60
2022/03/16 07:31:12;;;;;;;27.35;12.32;;;11.20;89.10;;;;;;5108138;28;20036;-60
2022/03/16 07:33:37;;;;;;;36.85;13.00;;;11.20;89.40;;;;;;5107542;28;20036;-60
2022/03/16 07:36:04;;;;;;;30.85;13.02;;;11.20;89.40;;;;;;5108214;28;20438;-60
2022/03/16 07:38:29;;;;;;;30.48;13.35;;;11.20;89.40;;;;;;5109206;28;20023;-60
2022/03/16 07:40:55;;;;;;;27.33;12.02;;;11.20;89.20;;;;;;5109042;28;20031;-60
2022/03/16 07:43:21;;;;;;;34.40;11.98;;;11.20;90.00;;;;;;5108737;28;20468;-60
2022/03/16 07:45:47;;;;;;;31.60;11.93;;;11.20;89.40;;;;;;5109334;28;20727;-60
2022/03/16 07:48:13;;;;;;;27.67;11.43;;;11.20;89.60;;;;;;5108447;28;20070;-62
2022/03/16 07:50:39;;;;;;;27.70;11.63;;;11.20;89.40;;;;;;5109206;28;20063;-60
2022/03/16 07:53:06;;;;;;;26.50;11.77;;;11.10;89.20;;;;;;5107828;28;20027;-60
2022/03/16 07:55:32;;;;;;;22.98;9.82;;;11.10;89.20;;;;;;5109165;28;20107;-60
2022/03/16 07:57:58;;;;;;;19.90;9.45;;;11.10;89.20;;;;;;5109151;28;20119;-60
2022/03/16 08:00:25;;;;;;;29.67;12.32;;;11.10;89.40;;;;;;5109016;28;20020;-60
2022/03/16 08:02:53;;;;;;;32.33;10.45;;;11.10;89.30;;;;;;5106318;28;21040;-60
2022/03/16 08:05:21;;;;;;;27.90;11.10;;;11.10;89.30;;;;;;5109378;28;20076;-61
2022/03/16 08:07:47;;;;;;;24.30;9.90;;;11.10;89.70;;;;;;5109169;28;20050;-60
2022/03/16 08:10:13;;;;;;;27.00;10.75;;;11.20;89.60;;;;;;5109658;28;20036;-60
2022/03/16 08:12:38;;;;;;;26.42;10.95;;;11.20;89.40;;;;;;5108726;28;20502;-60
2022/03/16 08:15:07;;;;;;;23.92;10.25;;;11.20;89.40;;;;;;5108977;28;20027;-60
2022/03/16 08:17:33;;;;;;;25.88;10.88;;;11.10;89.10;;;;;;5109239;28;20524;-60
2022/03/16 08:19:59;;;;;;;28.75;11.40;;;11.10;89.20;;;;;;5109385;28;20032;-61
2022/03/16 08:22:29;;;;;;;26.50;11.45;;;11.10;89.80;;;;;;5112399;28;20094;-61
2022/03/16 08:24:55;;;;;;;26.55;11.57;;;11.10;89.30;;;;;;5113407;28;20051;-60
2022/03/16 08:27:22;;;;;;;23.55;11.57;;;11.10;89.30;;;;;;5113164;28;20027;-61
2022/03/16 08:29:48;;;;;;;28.80;13.32;;;11.10;89.50;;;;;;5112238;28;20046;-61
2022/03/16 08:32:14;;;;;;;25.63;11.00;;;11.10;89.10;;;;;;5112397;28;20481;-61
2022/03/16 08:34:40;;;;;;;29.98;12.75;;;11.10;89.80;;;;;;5111689;28;20621;-60
2022/03/16 08:37:05;;;;;;;24.60;11.27;;;11.10;89.40;;;;;;5113128;28;20108;-60
2022/03/16 08:39:31;;;;;;;26.38;10.35;;;11.10;89.60;;;;;;5111917;28;20016;-60
2022/03/16 08:41:56;;;;;;;29.05;10.52;;;11.10;89.20;;;;;;5112306;28;20020;-60
2022/03/16 08:44:23;;;;;;;28.63;11.65;;;11.10;89.10;;;;;;5112599;28;20133;-60
2022/03/16 08:46:50;;;;;;;29.50;12.15;;;11.10;89.20;;;;;;5112587;28;20031;-60
2022/03/16 08:49:21;;;;;;;23.65;10.95;;;11.10;89.00;;;;;;5111400;28;20024;-61
2022/03/16 08:51:47;;;;;;;21.08;9.48;;;11.10;89.20;;;;;;5112807;28;20031;-60
2022/03/16 08:54:13;;;;;;;28.20;11.65;;;11.10;89.30;;;;;;5112729;28;20118;-60
2022/03/16 08:56:38;;;;;;;26.38;11.40;;;11.10;89.10;;;;;;5112189;28;20046;-60
2022/03/16 08:59:04;;;;;;;26.67;10.85;;;11.10;89.00;;;;;;5112987;28;20106;-60
2022/03/16 09:01:29;;;;;;;26.00;10.52;;;11.10;89.30;;;;;;5111665;28;20037;-60
2022/03/16 09:03:55;;;;;;;32.30;12.55;;;11.10;89.30;;;;;;5105377;27;20035;-61
2022/03/16 09:06:21;;;;;;;23.00;11.20;;;11.10;89.10;;;;;;5110712;28;20468;-60
2022/03/16 09:08:47;;;;;;;27.00;11.55;;;11.10;89.10;;;;;;5112207;28;20062;-60
2022/03/16 09:11:13;;;;;;;34.05;11.75;;;11.10;89.00;;;;;;5112066;28;20036;-60
2022/03/16 09:13:39;;;;;;;25.83;10.32;;;11.10;89.00;;;;;;5110211;28;20051;-60
2022/03/16 09:16:05;;;;;;;29.08;12.02;;;11.10;88.90;;;;;;5112164;28;20019;-60
2022/03/16 09:18:31;;;;;;;26.35;11.52;;;11.10;89.00;;;;;;5110567;28;20028;-60
2022/03/16 09:20:57;;;;;;;26.35;12.43;;;11.20;89.20;;;;;;5111938;28;20472;-60
2022/03/16 09:23:22;;;;;;;21.08;10.35;;;11.20;89.10;;;;;;5111575;27;20445;-60
2022/03/16 09:25:48;;;;;;;27.65;11.15;;;11.20;89.00;;;;;;5112087;28;20051;-60
2022/03/16 09:28:14;;;;;;;28.20;11.63;;;11.20;88.90;;;;;;5111760;28;20066;-61
2022/03/16 09:30:40;;;;;;;22.92;10.82;;;11.20;88.90;;;;;;5110834;27;20428;-60
2022/03/16 09:33:05;;;;;;;29.65;11.63;;;11.10;88.80;;;;;;5110640;28;20043;-60
2022/03/16 09:35:33;;;;;;;27.23;12.13;;;11.20;88.90;;;;;;5110686;28;20437;-60
2022/03/16 09:37:59;;;;;;;32.10;12.82;;;11.20;88.90;;;;;;5109317;28;20020;-61
2022/03/16 09:40:26;;;;;;;26.83;10.68;;;11.10;88.80;;;;;;5109179;28;20019;-61
2022/03/16 09:42:53;;;;;;;27.55;12.15;;;11.20;89.00;;;;;;5109470;28;20072;-60
2022/03/16 09:45:22;;;;;;;26.23;10.68;;;11.10;88.70;;;;;;5103525;28;20104;-61
2022/03/16 09:47:49;;;;;;;28.80;11.23;;;11.10;88.90;;;;;;5102040;27;20023;-60
2022/03/16 09:50:19;;;;;;;25.20;11.45;;;11.20;88.80;;;;;;5102791;28;20040;-61
2022/03/16 09:52:46;;;;;;;30.15;11.45;;;11.20;88.90;;;;;;5105501;28;20028;-61
2022/03/16 09:55:11;;;;;;;29.83;12.05;;;11.20;88.90;;;;;;5102870;28;20051;-60
2022/03/16 09:57:37;;;;;;;27.08;11.20;;;11.20;88.90;;;;;;5101719;28;20058;-60
2022/03/16 10:00:03;;;;;;;27.42;11.85;;;11.20;88.80;;;;;;5109009;28;20026;-61
2022/03/16 10:02:28;;;;;;;28.50;12.50;;;11.20;88.80;;;;;;5100876;28;20024;-60
2022/03/16 10:04:54;;;;;;;29.58;12.48;;;11.20;88.50;;;;;;5100762;27;20028;-60
2022/03/16 10:07:28;;;;;;;26.67;9.88;;;11.20;89.60;;;;;;5101957;28;20451;-61
2022/03/16 10:15:23;;;;;;;30.58;11.80;;;11.20;88.80;;;;;;5098581;28;20047;-60
2022/03/16 10:18:00;;;;;;;29.05;11.40;;;11.20;88.90;;;;;;5100905;28;20063;-60
2022/03/16 10:20:28;;;;;;;24.20;10.95;;;11.20;88.50;;;;;;5097765;28;20027;-60
2022/03/16 10:22:57;;;;;;;23.90;10.45;;;11.20;88.60;;;;;;5098113;28;20024;-61
2022/03/16 10:25:23;;;;;;;26.83;11.38;;;11.20;88.90;;;;;;5102436;28;20035;-60
2022/03/16 10:27:49;;;;;;;28.70;13.10;;;11.20;88.70;;;;;;5101598;28;20074;-60
2022/03/16 10:30:14;;;;;;;28.33;11.55;;;11.30;89.10;;;;;;5098803;28;20055;-61
2022/03/16 10:32:52;;;;;;;21.48;11.05;;;11.30;88.70;;;;;;5107025;28;20067;-60
2022/03/16 10:35:17;;;;;;;36.47;12.80;;;11.30;88.70;;;;;;5094997;28;20066;-61
2022/03/16 10:37:43;;;;;;;34.83;11.88;;;11.30;88.70;;;;;;5099537;28;20023;-60
2022/03/16 10:40:18;;;;;;;28.48;12.63;;;11.30;88.70;;;;;;5102299;28;20080;-60
2022/03/16 10:48:22;;;;;;;34.58;13.98;;;11.30;88.90;;;;;;5093791;28;20042;-60
2022/03/16 10:50:49;;;;;;;25.90;11.65;;;11.30;88.60;;;;;;5093800;28;20048;-61
2022/03/16 10:53:17;;;;;;;31.25;15.27;;;11.30;88.90;;;;;;5097632;28;20104;-61
2022/03/16 10:55:45;;;;;;;25.80;11.02;;;11.30;88.90;;;;;;5103509;28;20077;-60
2022/03/16 10:58:12;;;;;;;35.92;14.77;;;11.30;88.70;;;;;;5101997;28;20034;-60
2022/03/16 11:00:39;;;;;;;23.33;11.43;;;11.40;89.00;;;;;;5108213;28;20077;-60
2022/03/16 11:03:06;;;;;;;23.58;11.00;;;11.40;88.70;;;;;;5097354;28;20020;-60
2022/03/16 11:05:40;;;;;;;28.15;12.45;;;11.40;88.80;;;;;;5105071;28;20106;-60
2022/03/16 11:08:07;;;;;;;30.30;13.38;;;11.40;89.00;;;;;;5108667;28;20076;-60
2022/03/16 11:10:41;;;;;;;27.65;12.98;;;11.40;88.90;;;;;;5101621;27;20035;-60
2022/03/16 11:13:28;;;;;;;23.73;11.88;;;11.40;89.20;;;;;;5097443;28;20105;-60
2022/03/16 11:15:59;;;;;;;24.65;11.50;;;11.40;89.20;;;;;;5098031;28;20024;-60
2022/03/16 11:18:25;;;;;;;26.52;11.88;;;11.40;88.90;;;;;;5089937;28;20031;-60
2022/03/16 11:21:05;;;;;;;31.17;14.80;;;11.40;89.00;;;;;;5110929;22;20036;-64
2022/03/16 11:26:34;;;;;;;23.95;10.30;;;11.40;88.70;;;;;;5069592;28;20399;-63
2022/03/16 11:29:00;;;;;;;27.30;12.93;;;11.50;89.40;;;;;;5069297;28;20059;-63
2022/03/16 11:31:30;;;;;;;25.13;11.43;;;11.50;89.10;;;;;;5065853;28;20064;-63
2022/03/16 11:33:59;;;;;;;34.15;15.35;;;11.50;89.20;;;;;;5052461;28;20029;-63
2022/03/16 11:36:32;;;;;;;29.27;11.75;;;11.50;89.60;;;;;;5065182;28;20086;-63
2022/03/16 11:39:03;;;;;;;30.65;13.43;;;11.50;89.00;;;;;;5068851;28;20109;-63
2022/03/16 11:41:32;;;;;;;;;;;11.50;90.10;;;;;;5068107;28;20029;-63
2022/03/16 11:44:26;;;;;;;25.83;12.65;;;11.50;89.10;;;;;;5068730;28;19969;-63
2022/03/16 11:46:53;;;;;;;30.27;13.35;;;11.50;90.00;;;;;;5059633;28;20071;-62
2022/03/16 11:49:28;;;;;;;27.67;11.43;;;11.50;89.90;;;;;;5068542;28;20020;-63
2022/03/16 11:52:01;;;;;;;25.88;12.00;;;11.50;90.10;;;;;;5068307;28;20036;-63
2022/03/16 11:54:46;;;;;;;33.40;13.02;;;11.50;89.80;;;;;;5072082;28;20037;-63
2022/03/16 11:57:13;;;;;;;25.90;10.75;;;11.50;90.10;;;;;;5073213;28;20085;-63
2022/03/16 11:59:44;;;;;;;35.40;12.82;;;11.50;89.50;;;;;;5072442;28;20021;-63
2022/03/16 12:02:12;;;;;;;;;;;11.50;90.10;;;;;;5068097;28;20052;-63
2022/03/16 12:04:46;;;;;;;31.55;12.05;;;11.50;89.20;;;;;;5049195;28;19912;-64
2022/03/16 12:07:14;;;;;;;24.63;12.15;;;11.50;89.50;;;;;;5073119;28;20040;-63
2022/03/16 12:09:51;;;;;;;24.38;11.23;;;11.50;90.00;;;;;;5072011;28;20040;-64
2022/03/16 12:15:19;;;;;;;28.60;12.45;;;11.50;89.70;;;;;;5067024;28;20468;-64
2022/03/16 12:17:57;;;;;;;29.05;13.27;;;11.50;90.00;;;;;;5061027;28;20029;-63
2022/03/16 12:20:28;;;;;;;26.58;11.98;;;11.50;90.30;;;;;;5037291;28;20036;-63
2022/03/16 12:22:57;;;;;;;29.42;12.38;;;11.50;89.70;;;;;;5069020;28;20028;-63
2022/03/16 12:25:29;;;;;;;25.40;12.05;;;11.50;90.80;;;;;;5070451;28;20028;-63
2022/03/16 12:31:07;;;;;;;32.10;15.20;;;11.50;90.40;;;;;;5071956;28;20072;-64
2022/03/16 12:33:41;;;;;;;26.52;13.10;;;11.50;90.60;;;;;;5066186;28;20048;-63
2022/03/16 12:36:13;;;;;;;24.75;11.45;;;11.50;90.30;;;;;;5057150;28;20527;-63
2022/03/16 12:38:44;;;;;;;35.53;12.48;;;11.50;90.10;;;;;;5072346;28;20035;-63
2022/03/16 12:44:04;;;;;;;21.30;10.27;;;11.50;90.40;;;;;;5064072;28;20035;-63
2022/03/16 12:46:32;;;;;;;26.33;11.55;;;11.50;90.30;;;;;;5052941;28;20025;-63
2022/03/16 12:49:02;;;;;;;23.85;10.15;;;11.50;90.00;;;;;;5056982;28;20043;-63
2022/03/16 12:51:38;;;;;;;23.25;10.25;;;11.50;89.70;;;;;;5071110;28;20054;-63
2022/03/16 12:54:05;;;;;;;24.88;12.02;;;11.50;90.20;;;;;;5072734;28;20098;-63
2022/03/16 12:59:59;;;;;;;23.92;11.43;;;11.60;90.30;;;;;;5071777;28;20039;-63
2022/03/16 13:02:29;;;;;;;26.40;13.05;;;11.50;90.40;;;;;;5072078;28;20113;-63
2022/03/16 13:05:00;;;;;;;25.60;10.82;;;11.50;89.90;;;;;;5071672;28;20024;-63